sensor_id;sensor_type;location;lat;lon;timestamp;P1;durP1;ratioP1;P2;durP2;ratioP2
45326;SDS011;31062;49.678;24.560;2023-11-21T00:01:21;5.72;;;4.30;;
45326;SDS011;31062;49.678;24.560;2023-11-21T00:04:08;4.43;;;4.00;;
45326;SDS011;31062;49.678;24.560;2023-11-21T00:06:55;5.13;;;4.07;;
45326;SDS011;31062;49.678;24.560;2023-11-21T00:09:41;4.18;;;3.75;;
45326;SDS011;31062;49.678;24.560;2023-11-21T00:12:27;4.65;;;3.78;;
45326;SDS011;31062;49.678;24.560;2023-11-21T00:15:14;5.68;;;3.58;;
45326;SDS011;31062;49.678;24.560;2023-11-21T00:18:00;4.63;;;3.53;;
45326;SDS011;31062;49.678;24.560;2023-11-21T00:20:47;4.18;;;3.50;;
45326;SDS011;31062;49.678;24.560;2023-11-21T00:23:32;4.25;;;3.70;;
45326;SDS011;31062;49.678;24.560;2023-11-21T00:26:18;5.38;;;3.75;;
45326;SDS011;31062;49.678;24.560;2023-11-21T00:29:16;8.07;;;4.03;;
45326;SDS011;31062;49.678;24.560;2023-11-21T00:32:02;4.15;;;3.65;;
45326;SDS011;31062;49.678;24.560;2023-11-21T00:34:50;4.25;;;3.85;;
45326;SDS011;31062;49.678;24.560;2023-11-21T00:37:37;5.10;;;4.15;;
45326;SDS011;31062;49.678;24.560;2023-11-21T00:40:24;6.30;;;5.15;;
45326;SDS011;31062;49.678;24.560;2023-11-21T00:43:09;5.38;;;4.88;;
45326;SDS011;31062;49.678;24.560;2023-11-21T00:45:57;4.45;;;4.05;;
45326;SDS011;31062;49.678;24.560;2023-11-21T00:48:42;4.40;;;4.00;;
45326;SDS011;31062;49.678;24.560;2023-11-21T00:51:28;7.63;;;4.47;;
45326;SDS011;31062;49.678;24.560;2023-11-21T00:54:13;5.25;;;4.70;;
45326;SDS011;31062;49.678;24.560;2023-11-21T00:57:02;5.45;;;4.93;;
45326;SDS011;31062;49.678;24.560;2023-11-21T00:59:48;4.53;;;3.90;;
45326;SDS011;31062;49.678;24.560;2023-11-21T01:02:36;3.53;;;3.10;;
45326;SDS011;31062;49.678;24.560;2023-11-21T01:05:22;3.80;;;3.28;;
45326;SDS011;31062;49.678;24.560;2023-11-21T01:08:08;3.95;;;3.30;;
45326;SDS011;31062;49.678;24.560;2023-11-21T01:10:54;5.68;;;4.05;;
45326;SDS011;31062;49.678;24.560;2023-11-21T01:13:42;4.05;;;3.47;;
45326;SDS011;31062;49.678;24.560;2023-11-21T01:16:27;4.82;;;3.90;;
45326;SDS011;31062;49.678;24.560;2023-11-21T01:19:14;3.97;;;3.58;;
45326;SDS011;31062;49.678;24.560;2023-11-21T01:22:00;3.38;;;3.08;;
45326;SDS011;31062;49.678;24.560;2023-11-21T01:24:47;3.50;;;3.20;;
45326;SDS011;31062;49.678;24.560;2023-11-21T01:27:35;3.42;;;3.13;;
45326;SDS011;31062;49.678;24.560;2023-11-21T01:30:21;4.07;;;3.33;;
45326;SDS011;31062;49.678;24.560;2023-11-21T01:33:07;5.57;;;3.75;;
45326;SDS011;31062;49.678;24.560;2023-11-21T01:35:54;3.97;;;3.05;;
45326;SDS011;31062;49.678;24.560;2023-11-21T01:38:40;4.20;;;3.05;;
45326;SDS011;31062;49.678;24.560;2023-11-21T01:41:26;3.33;;;3.03;;
45326;SDS011;31062;49.678;24.560;2023-11-21T01:44:13;8.88;;;3.78;;
45326;SDS011;31062;49.678;24.560;2023-11-21T01:46:59;5.63;;;3.40;;
45326;SDS011;31062;49.678;24.560;2023-11-21T01:49:50;3.88;;;3.55;;
45326;SDS011;31062;49.678;24.560;2023-11-21T01:52:36;4.25;;;3.83;;
45326;SDS011;31062;49.678;24.560;2023-11-21T01:55:22;4.32;;;3.90;;
45326;SDS011;31062;49.678;24.560;2023-11-21T01:58:13;4.15;;;3.75;;
45326;SDS011;31062;49.678;24.560;2023-11-21T02:00:59;5.07;;;3.75;;
45326;SDS011;31062;49.678;24.560;2023-11-21T02:03:46;4.63;;;3.58;;
45326;SDS011;31062;49.678;24.560;2023-11-21T02:06:33;4.18;;;3.78;;
45326;SDS011;31062;49.678;24.560;2023-11-21T02:09:23;5.85;;;4.13;;
45326;SDS011;31062;49.678;24.560;2023-11-21T02:12:11;5.40;;;4.22;;
45326;SDS011;31062;49.678;24.560;2023-11-21T02:14:57;6.95;;;4.15;;
45326;SDS011;31062;49.678;24.560;2023-11-21T02:17:43;5.85;;;3.97;;
45326;SDS011;31062;49.678;24.560;2023-11-21T02:20:29;7.05;;;4.55;;
45326;SDS011;31062;49.678;24.560;2023-11-21T02:23:15;5.10;;;4.47;;
45326;SDS011;31062;49.678;24.560;2023-11-21T02:26:01;6.85;;;5.20;;
45326;SDS011;31062;49.678;24.560;2023-11-21T02:28:49;10.40;;;5.50;;
45326;SDS011;31062;49.678;24.560;2023-11-21T02:31:36;13.90;;;6.10;;
45326;SDS011;31062;49.678;24.560;2023-11-21T02:34:31;23.52;;;9.02;;
45326;SDS011;31062;49.678;24.560;2023-11-21T02:37:17;24.77;;;10.75;;
45326;SDS011;31062;49.678;24.560;2023-11-21T02:40:03;21.02;;;10.75;;
45326;SDS011;31062;49.678;24.560;2023-11-21T02:42:52;22.15;;;10.38;;
45326;SDS011;31062;49.678;24.560;2023-11-21T02:45:38;12.80;;;8.38;;
45326;SDS011;31062;49.678;24.560;2023-11-21T02:48:26;13.93;;;7.88;;
45326;SDS011;31062;49.678;24.560;2023-11-21T02:51:12;11.00;;;7.60;;
45326;SDS011;31062;49.678;24.560;2023-11-21T02:53:58;9.32;;;6.20;;
45326;SDS011;31062;49.678;24.560;2023-11-21T02:56:44;13.27;;;7.63;;
45326;SDS011;31062;49.678;24.560;2023-11-21T02:59:31;10.02;;;7.45;;
45326;SDS011;31062;49.678;24.560;2023-11-21T03:02:16;9.20;;;6.45;;
45326;SDS011;31062;49.678;24.560;2023-11-21T03:05:02;9.10;;;5.82;;
45326;SDS011;31062;49.678;24.560;2023-11-21T03:07:50;6.88;;;5.80;;
45326;SDS011;31062;49.678;24.560;2023-11-21T03:10:37;6.15;;;4.63;;
45326;SDS011;31062;49.678;24.560;2023-11-21T03:13:23;5.75;;;4.45;;
45326;SDS011;31062;49.678;24.560;2023-11-21T03:16:10;8.57;;;4.70;;
45326;SDS011;31062;49.678;24.560;2023-11-21T03:18:56;7.35;;;4.68;;
45326;SDS011;31062;49.678;24.560;2023-11-21T03:21:42;6.07;;;4.82;;
45326;SDS011;31062;49.678;24.560;2023-11-21T03:24:28;5.10;;;4.43;;
45326;SDS011;31062;49.678;24.560;2023-11-21T03:27:14;6.47;;;4.43;;
45326;SDS011;31062;49.678;24.560;2023-11-21T03:30:00;4.78;;;3.92;;
45326;SDS011;31062;49.678;24.560;2023-11-21T03:32:49;5.43;;;4.38;;
45326;SDS011;31062;49.678;24.560;2023-11-21T03:35:35;5.47;;;4.15;;
45326;SDS011;31062;49.678;24.560;2023-11-21T03:38:22;9.60;;;4.50;;
45326;SDS011;31062;49.678;24.560;2023-11-21T03:41:08;5.30;;;4.35;;
45326;SDS011;31062;49.678;24.560;2023-11-21T03:44:17;5.13;;;4.25;;
45326;SDS011;31062;49.678;24.560;2023-11-21T03:47:03;5.00;;;4.38;;
45326;SDS011;31062;49.678;24.560;2023-11-21T03:49:49;4.97;;;4.20;;
45326;SDS011;31062;49.678;24.560;2023-11-21T03:52:35;6.38;;;5.15;;
45326;SDS011;31062;49.678;24.560;2023-11-21T03:55:21;7.80;;;4.65;;
45326;SDS011;31062;49.678;24.560;2023-11-21T03:58:08;4.00;;;3.60;;
45326;SDS011;31062;49.678;24.560;2023-11-21T04:00:54;4.40;;;3.45;;
45326;SDS011;31062;49.678;24.560;2023-11-21T04:03:40;5.25;;;4.05;;
45326;SDS011;31062;49.678;24.560;2023-11-21T04:06:26;4.35;;;3.95;;
45326;SDS011;31062;49.678;24.560;2023-11-21T04:09:13;4.22;;;3.83;;
45326;SDS011;31062;49.678;24.560;2023-11-21T04:11:59;4.70;;;3.78;;
45326;SDS011;31062;49.678;24.560;2023-11-21T04:14:45;3.85;;;3.55;;
45326;SDS011;31062;49.678;24.560;2023-11-21T04:17:31;4.22;;;3.45;;
45326;SDS011;31062;49.678;24.560;2023-11-21T04:20:17;4.22;;;3.03;;
45326;SDS011;31062;49.678;24.560;2023-11-21T04:23:03;2.90;;;2.60;;
45326;SDS011;31062;49.678;24.560;2023-11-21T04:25:49;5.43;;;3.30;;
45326;SDS011;31062;49.678;24.560;2023-11-21T04:28:55;4.80;;;2.95;;
45326;SDS011;31062;49.678;24.560;2023-11-21T04:31:41;3.85;;;3.35;;
45326;SDS011;31062;49.678;24.560;2023-11-21T04:34:27;3.92;;;3.10;;
45326;SDS011;31062;49.678;24.560;2023-11-21T04:37:13;4.22;;;3.83;;
45326;SDS011;31062;49.678;24.560;2023-11-21T04:39:58;6.03;;;4.57;;
45326;SDS011;31062;49.678;24.560;2023-11-21T04:42:45;9.15;;;4.85;;
45326;SDS011;31062;49.678;24.560;2023-11-21T04:45:32;9.02;;;6.07;;
45326;SDS011;31062;49.678;24.560;2023-11-21T04:48:18;11.48;;;7.25;;
45326;SDS011;31062;49.678;24.560;2023-11-21T04:51:05;12.13;;;7.38;;
45326;SDS011;31062;49.678;24.560;2023-11-21T04:53:51;9.18;;;6.60;;
45326;SDS011;31062;49.678;24.560;2023-11-21T04:56:37;5.25;;;4.75;;
45326;SDS011;31062;49.678;24.560;2023-11-21T04:59:24;5.18;;;4.32;;
45326;SDS011;31062;49.678;24.560;2023-11-21T05:02:10;6.18;;;3.92;;
45326;SDS011;31062;49.678;24.560;2023-11-21T05:05:17;4.85;;;4.35;;
45326;SDS011;31062;49.678;24.560;2023-11-21T05:08:03;6.00;;;4.20;;
45326;SDS011;31062;49.678;24.560;2023-11-21T05:10:51;6.07;;;4.18;;
45326;SDS011;31062;49.678;24.560;2023-11-21T05:13:37;6.18;;;4.40;;
45326;SDS011;31062;49.678;24.560;2023-11-21T05:16:25;7.60;;;4.93;;
45326;SDS011;31062;49.678;24.560;2023-11-21T05:19:13;7.18;;;5.03;;
45326;SDS011;31062;49.678;24.560;2023-11-21T05:21:59;10.90;;;5.80;;
45326;SDS011;31062;49.678;24.560;2023-11-21T05:24:46;5.65;;;4.95;;
45326;SDS011;31062;49.678;24.560;2023-11-21T05:27:31;7.72;;;5.18;;
45326;SDS011;31062;49.678;24.560;2023-11-21T05:30:17;16.67;;;8.57;;
45326;SDS011;31062;49.678;24.560;2023-11-21T05:33:03;8.95;;;6.20;;
45326;SDS011;31062;49.678;24.560;2023-11-21T05:35:49;7.05;;;5.78;;
45326;SDS011;31062;49.678;24.560;2023-11-21T05:38:35;11.75;;;5.43;;
45326;SDS011;31062;49.678;24.560;2023-11-21T05:41:21;10.40;;;6.28;;
45326;SDS011;31062;49.678;24.560;2023-11-21T05:44:07;7.50;;;6.13;;
45326;SDS011;31062;49.678;24.560;2023-11-21T05:46:53;10.30;;;5.97;;
45326;SDS011;31062;49.678;24.560;2023-11-21T05:49:39;9.23;;;6.50;;
45326;SDS011;31062;49.678;24.560;2023-11-21T05:52:25;9.02;;;6.28;;
45326;SDS011;31062;49.678;24.560;2023-11-21T05:55:11;7.05;;;5.82;;
45326;SDS011;31062;49.678;24.560;2023-11-21T05:57:57;9.35;;;6.43;;
45326;SDS011;31062;49.678;24.560;2023-11-21T06:00:43;11.48;;;6.72;;
45326;SDS011;31062;49.678;24.560;2023-11-21T06:03:28;8.90;;;7.25;;
45326;SDS011;31062;49.678;24.560;2023-11-21T06:06:35;11.63;;;8.60;;
45326;SDS011;31062;49.678;24.560;2023-11-21T06:09:21;24.52;;;8.82;;
45326;SDS011;31062;49.678;24.560;2023-11-21T06:12:28;13.40;;;8.40;;
45326;SDS011;31062;49.678;24.560;2023-11-21T06:15:15;13.70;;;8.60;;
45326;SDS011;31062;49.678;24.560;2023-11-21T06:18:20;10.45;;;7.32;;
45326;SDS011;31062;49.678;24.560;2023-11-21T06:21:26;12.68;;;8.00;;
45326;SDS011;31062;49.678;24.560;2023-11-21T06:24:31;14.77;;;10.43;;
45326;SDS011;31062;49.678;24.560;2023-11-21T06:27:47;19.45;;;11.05;;
45326;SDS011;31062;49.678;24.560;2023-11-21T06:30:54;15.98;;;11.18;;
45326;SDS011;31062;49.678;24.560;2023-11-21T06:33:40;11.77;;;9.07;;
45326;SDS011;31062;49.678;24.560;2023-11-21T06:36:27;10.20;;;8.10;;
45326;SDS011;31062;49.678;24.560;2023-11-21T06:39:29;11.00;;;7.53;;
45326;SDS011;31062;49.678;24.560;2023-11-21T06:42:15;9.82;;;8.13;;
45326;SDS011;31062;49.678;24.560;2023-11-21T06:45:01;13.30;;;10.07;;
45326;SDS011;31062;49.678;24.560;2023-11-21T06:47:51;17.13;;;11.23;;
45326;SDS011;31062;49.678;24.560;2023-11-21T06:50:57;17.40;;;11.55;;
45326;SDS011;31062;49.678;24.560;2023-11-21T06:54:03;12.50;;;10.20;;
45326;SDS011;31062;49.678;24.560;2023-11-21T06:57:09;9.15;;;7.88;;
45326;SDS011;31062;49.678;24.560;2023-11-21T06:59:55;13.43;;;7.28;;
45326;SDS011;31062;49.678;24.560;2023-11-21T07:02:43;11.60;;;7.38;;
45326;SDS011;31062;49.678;24.560;2023-11-21T07:05:29;6.82;;;6.10;;
45326;SDS011;31062;49.678;24.560;2023-11-21T07:08:15;9.38;;;6.22;;
45326;SDS011;31062;49.678;24.560;2023-11-21T07:11:01;5.40;;;4.90;;
45326;SDS011;31062;49.678;24.560;2023-11-21T07:13:48;8.48;;;5.28;;
45326;SDS011;31062;49.678;24.560;2023-11-21T07:16:36;6.43;;;5.22;;
45326;SDS011;31062;49.678;24.560;2023-11-21T07:19:23;6.53;;;5.10;;
45326;SDS011;31062;49.678;24.560;2023-11-21T07:22:08;18.50;;;9.35;;
45326;SDS011;31062;49.678;24.560;2023-11-21T07:24:54;6.35;;;5.63;;
45326;SDS011;31062;49.678;24.560;2023-11-21T07:27:42;6.20;;;4.80;;
45326;SDS011;31062;49.678;24.560;2023-11-21T07:30:28;6.35;;;5.32;;
45326;SDS011;31062;49.678;24.560;2023-11-21T07:33:14;10.00;;;6.57;;
45326;SDS011;31062;49.678;24.560;2023-11-21T07:36:20;9.73;;;7.28;;
45326;SDS011;31062;49.678;24.560;2023-11-21T07:42:28;7.00;;;5.55;;
45326;SDS011;31062;49.678;24.560;2023-11-21T07:45:34;8.25;;;6.03;;
45326;SDS011;31062;49.678;24.560;2023-11-21T07:48:40;8.93;;;6.68;;
45326;SDS011;31062;49.678;24.560;2023-11-21T07:51:50;8.60;;;7.10;;
45326;SDS011;31062;49.678;24.560;2023-11-21T07:54:55;8.85;;;6.55;;
45326;SDS011;31062;49.678;24.560;2023-11-21T07:58:01;8.23;;;6.00;;
45326;SDS011;31062;49.678;24.560;2023-11-21T08:00:49;5.30;;;4.20;;
45326;SDS011;31062;49.678;24.560;2023-11-21T08:03:35;7.82;;;4.82;;
45326;SDS011;31062;49.678;24.560;2023-11-21T08:06:21;6.57;;;4.60;;
45326;SDS011;31062;49.678;24.560;2023-11-21T08:09:27;6.45;;;4.95;;
45326;SDS011;31062;49.678;24.560;2023-11-21T08:12:33;6.32;;;4.65;;
45326;SDS011;31062;49.678;24.560;2023-11-21T08:15:27;4.72;;;4.10;;
45326;SDS011;31062;49.678;24.560;2023-11-21T08:18:33;9.13;;;8.00;;
45326;SDS011;31062;49.678;24.560;2023-11-21T08:21:39;6.13;;;4.65;;
45326;SDS011;31062;49.678;24.560;2023-11-21T08:24:45;6.78;;;5.78;;
45326;SDS011;31062;49.678;24.560;2023-11-21T08:27:51;5.30;;;4.80;;
45326;SDS011;31062;49.678;24.560;2023-11-21T08:30:58;5.30;;;4.55;;
45326;SDS011;31062;49.678;24.560;2023-11-21T08:34:05;7.68;;;4.70;;
45326;SDS011;31062;49.678;24.560;2023-11-21T08:37:11;6.82;;;4.97;;
45326;SDS011;31062;49.678;24.560;2023-11-21T08:40:20;4.65;;;4.05;;
45326;SDS011;31062;49.678;24.560;2023-11-21T08:43:26;5.45;;;4.50;;
45326;SDS011;31062;49.678;24.560;2023-11-21T08:46:32;8.30;;;5.05;;
45326;SDS011;31062;49.678;24.560;2023-11-21T08:49:38;12.90;;;6.30;;
45326;SDS011;31062;49.678;24.560;2023-11-21T08:52:44;12.93;;;9.80;;
45326;SDS011;31062;49.678;24.560;2023-11-21T08:55:50;11.18;;;7.35;;
45326;SDS011;31062;49.678;24.560;2023-11-21T08:58:56;9.85;;;6.55;;
45326;SDS011;31062;49.678;24.560;2023-11-21T09:02:01;10.60;;;7.47;;
45326;SDS011;31062;49.678;24.560;2023-11-21T09:05:08;10.20;;;6.88;;
45326;SDS011;31062;49.678;24.560;2023-11-21T09:08:15;9.20;;;6.50;;
45326;SDS011;31062;49.678;24.560;2023-11-21T09:11:21;7.85;;;5.68;;
45326;SDS011;31062;49.678;24.560;2023-11-21T09:14:27;8.55;;;5.90;;
45326;SDS011;31062;49.678;24.560;2023-11-21T09:17:33;7.97;;;5.35;;
45326;SDS011;31062;49.678;24.560;2023-11-21T09:20:39;7.38;;;5.93;;
45326;SDS011;31062;49.678;24.560;2023-11-21T09:23:45;11.80;;;8.23;;
45326;SDS011;31062;49.678;24.560;2023-11-21T09:26:51;9.45;;;7.38;;
45326;SDS011;31062;49.678;24.560;2023-11-21T09:29:56;8.65;;;6.50;;
45326;SDS011;31062;49.678;24.560;2023-11-21T09:33:03;7.25;;;6.30;;
45326;SDS011;31062;49.678;24.560;2023-11-21T09:36:12;9.80;;;6.60;;
45326;SDS011;31062;49.678;24.560;2023-11-21T09:39:18;12.15;;;6.85;;
45326;SDS011;31062;49.678;24.560;2023-11-21T09:42:30;8.18;;;6.57;;
45326;SDS011;31062;49.678;24.560;2023-11-21T09:45:46;9.07;;;7.28;;
45326;SDS011;31062;49.678;24.560;2023-11-21T09:48:53;11.80;;;8.23;;
45326;SDS011;31062;49.678;24.560;2023-11-21T09:52:00;14.18;;;8.88;;
45326;SDS011;31062;49.678;24.560;2023-11-21T09:55:07;9.77;;;6.53;;
45326;SDS011;31062;49.678;24.560;2023-11-21T09:58:14;9.30;;;6.50;;
45326;SDS011;31062;49.678;24.560;2023-11-21T10:01:20;10.32;;;7.47;;
45326;SDS011;31062;49.678;24.560;2023-11-21T10:04:27;10.07;;;6.07;;
45326;SDS011;31062;49.678;24.560;2023-11-21T10:07:33;5.45;;;4.43;;
45326;SDS011;31062;49.678;24.560;2023-11-21T10:10:42;5.28;;;4.03;;
45326;SDS011;31062;49.678;24.560;2023-11-21T10:13:55;4.80;;;3.25;;
45326;SDS011;31062;49.678;24.560;2023-11-21T10:17:12;3.20;;;2.88;;
45326;SDS011;31062;49.678;24.560;2023-11-21T10:20:20;2.10;;;1.98;;
45326;SDS011;31062;49.678;24.560;2023-11-21T10:23:26;2.90;;;2.55;;
45326;SDS011;31062;49.678;24.560;2023-11-21T10:26:33;6.55;;;4.03;;
45326;SDS011;31062;49.678;24.560;2023-11-21T10:29:39;4.05;;;3.33;;
45326;SDS011;31062;49.678;24.560;2023-11-21T10:32:45;6.40;;;4.53;;
45326;SDS011;31062;49.678;24.560;2023-11-21T10:35:52;10.23;;;7.28;;
45326;SDS011;31062;49.678;24.560;2023-11-21T10:38:58;7.15;;;4.75;;
45326;SDS011;31062;49.678;24.560;2023-11-21T10:42:07;5.93;;;4.75;;
45326;SDS011;31062;49.678;24.560;2023-11-21T10:45:13;8.82;;;5.47;;
45326;SDS011;31062;49.678;24.560;2023-11-21T10:48:19;12.75;;;5.38;;
45326;SDS011;31062;49.678;24.560;2023-11-21T10:51:25;21.02;;;6.20;;
45326;SDS011;31062;49.678;24.560;2023-11-21T10:54:31;47.35;;;15.05;;
45326;SDS011;31062;49.678;24.560;2023-11-21T10:57:37;5.32;;;4.53;;
45326;SDS011;31062;49.678;24.560;2023-11-21T11:00:43;5.63;;;4.53;;
45326;SDS011;31062;49.678;24.560;2023-11-21T11:03:50;4.97;;;3.88;;
45326;SDS011;31062;49.678;24.560;2023-11-21T11:06:59;7.20;;;5.28;;
45326;SDS011;31062;49.678;24.560;2023-11-21T11:10:08;14.80;;;10.05;;
45326;SDS011;31062;49.678;24.560;2023-11-21T11:13:14;9.57;;;7.65;;
45326;SDS011;31062;49.678;24.560;2023-11-21T11:16:20;6.97;;;4.85;;
45326;SDS011;31062;49.678;24.560;2023-11-21T11:19:27;18.52;;;11.13;;
45326;SDS011;31062;49.678;24.560;2023-11-21T11:29:41;12.30;;;8.65;;
45326;SDS011;31062;49.678;24.560;2023-11-21T11:36:17;19.80;;;13.43;;
45326;SDS011;31062;49.678;24.560;2023-11-21T11:39:42;6.68;;;5.88;;
45326;SDS011;31062;49.678;24.560;2023-11-21T11:42:57;8.63;;;6.30;;
45326;SDS011;31062;49.678;24.560;2023-11-21T11:46:06;7.82;;;5.78;;
45326;SDS011;31062;49.678;24.560;2023-11-21T11:49:28;7.70;;;5.50;;
45326;SDS011;31062;49.678;24.560;2023-11-21T11:52:41;7.60;;;5.10;;
45326;SDS011;31062;49.678;24.560;2023-11-21T11:55:47;7.15;;;5.07;;
45326;SDS011;31062;49.678;24.560;2023-11-21T11:59:23;7.80;;;6.65;;
45326;SDS011;31062;49.678;24.560;2023-11-21T12:02:29;5.70;;;4.65;;
45326;SDS011;31062;49.678;24.560;2023-11-21T12:05:35;7.03;;;4.85;;
45326;SDS011;31062;49.678;24.560;2023-11-21T12:08:42;6.55;;;5.80;;
45326;SDS011;31062;49.678;24.560;2023-11-21T12:11:48;9.73;;;6.38;;
45326;SDS011;31062;49.678;24.560;2023-11-21T12:14:54;14.85;;;9.55;;
45326;SDS011;31062;49.678;24.560;2023-11-21T12:17:41;13.85;;;8.45;;
45326;SDS011;31062;49.678;24.560;2023-11-21T12:20:29;12.55;;;8.38;;
45326;SDS011;31062;49.678;24.560;2023-11-21T12:23:16;12.40;;;8.55;;
45326;SDS011;31062;49.678;24.560;2023-11-21T12:26:02;12.93;;;8.88;;
45326;SDS011;31062;49.678;24.560;2023-11-21T12:28:52;10.27;;;7.32;;
45326;SDS011;31062;49.678;24.560;2023-11-21T12:31:41;13.32;;;10.23;;
45326;SDS011;31062;49.678;24.560;2023-11-21T12:34:27;12.98;;;9.32;;
45326;SDS011;31062;49.678;24.560;2023-11-21T12:37:13;9.10;;;6.88;;
45326;SDS011;31062;49.678;24.560;2023-11-21T12:39:59;6.88;;;6.13;;
45326;SDS011;31062;49.678;24.560;2023-11-21T12:42:45;13.35;;;6.15;;
45326;SDS011;31062;49.678;24.560;2023-11-21T12:45:33;11.50;;;6.18;;
45326;SDS011;31062;49.678;24.560;2023-11-21T12:48:20;9.13;;;6.45;;
45326;SDS011;31062;49.678;24.560;2023-11-21T12:51:11;7.53;;;6.35;;
45326;SDS011;31062;49.678;24.560;2023-11-21T12:54:25;9.85;;;5.28;;
45326;SDS011;31062;49.678;24.560;2023-11-21T12:57:11;11.52;;;5.20;;
45326;SDS011;31062;49.678;24.560;2023-11-21T13:00:18;7.90;;;5.88;;
45326;SDS011;31062;49.678;24.560;2023-11-21T13:03:33;15.68;;;11.13;;
45326;SDS011;31062;49.678;24.560;2023-11-21T13:06:39;31.67;;;17.10;;
45326;SDS011;31062;49.678;24.560;2023-11-21T13:09:45;36.97;;;18.88;;
45326;SDS011;31062;49.678;24.560;2023-11-21T13:12:51;32.35;;;19.58;;
45326;SDS011;31062;49.678;24.560;2023-11-21T13:16:02;30.05;;;19.77;;
45326;SDS011;31062;49.678;24.560;2023-11-21T13:19:11;28.88;;;16.88;;
45326;SDS011;31062;49.678;24.560;2023-11-21T13:22:18;20.40;;;14.55;;
45326;SDS011;31062;49.678;24.560;2023-11-21T13:25:24;28.45;;;17.10;;
45326;SDS011;31062;49.678;24.560;2023-11-21T13:28:38;17.65;;;10.80;;
45326;SDS011;31062;49.678;24.560;2023-11-21T13:31:44;14.15;;;9.02;;
45326;SDS011;31062;49.678;24.560;2023-11-21T13:34:50;11.88;;;8.85;;
45326;SDS011;31062;49.678;24.560;2023-11-21T13:37:56;11.30;;;9.93;;
45326;SDS011;31062;49.678;24.560;2023-11-21T13:41:03;13.18;;;9.82;;
45326;SDS011;31062;49.678;24.560;2023-11-21T13:44:08;10.85;;;9.48;;
45326;SDS011;31062;49.678;24.560;2023-11-21T13:47:02;11.30;;;8.80;;
45326;SDS011;31062;49.678;24.560;2023-11-21T13:50:09;10.35;;;7.72;;
45326;SDS011;31062;49.678;24.560;2023-11-21T13:53:14;10.60;;;8.77;;
45326;SDS011;31062;49.678;24.560;2023-11-21T13:56:29;13.48;;;10.10;;
45326;SDS011;31062;49.678;24.560;2023-11-21T13:59:34;15.20;;;9.48;;
45326;SDS011;31062;49.678;24.560;2023-11-21T14:02:40;11.05;;;8.60;;
45326;SDS011;31062;49.678;24.560;2023-11-21T14:05:46;10.13;;;6.82;;
45326;SDS011;31062;49.678;24.560;2023-11-21T14:08:36;8.45;;;5.22;;
45326;SDS011;31062;49.678;24.560;2023-11-21T14:11:22;5.40;;;4.00;;
45326;SDS011;31062;49.678;24.560;2023-11-21T14:14:12;4.13;;;3.17;;
45326;SDS011;31062;49.678;24.560;2023-11-21T14:16:57;8.27;;;4.95;;
45326;SDS011;31062;49.678;24.560;2023-11-21T14:19:52;5.35;;;4.25;;
45326;SDS011;31062;49.678;24.560;2023-11-21T14:22:40;5.85;;;5.10;;
45326;SDS011;31062;49.678;24.560;2023-11-21T14:25:26;5.95;;;5.03;;
45326;SDS011;31062;49.678;24.560;2023-11-21T14:28:12;4.20;;;3.80;;
45326;SDS011;31062;49.678;24.560;2023-11-21T14:30:57;5.32;;;3.25;;
45326;SDS011;31062;49.678;24.560;2023-11-21T14:34:03;2.72;;;2.15;;
45326;SDS011;31062;49.678;24.560;2023-11-21T14:37:09;4.20;;;3.72;;
45326;SDS011;31062;49.678;24.560;2023-11-21T14:40:15;4.38;;;3.38;;
45326;SDS011;31062;49.678;24.560;2023-11-21T14:43:21;3.13;;;2.30;;
45326;SDS011;31062;49.678;24.560;2023-11-21T14:46:27;3.17;;;2.13;;
45326;SDS011;31062;49.678;24.560;2023-11-21T14:49:33;4.05;;;2.38;;
45326;SDS011;31062;49.678;24.560;2023-11-21T14:52:39;3.60;;;2.53;;
45326;SDS011;31062;49.678;24.560;2023-11-21T14:55:45;2.75;;;2.55;;
45326;SDS011;31062;49.678;24.560;2023-11-21T14:58:37;3.20;;;2.50;;
45326;SDS011;31062;49.678;24.560;2023-11-21T15:01:42;4.40;;;4.00;;
45326;SDS011;31062;49.678;24.560;2023-11-21T15:04:28;2.60;;;2.40;;
45326;SDS011;31062;49.678;24.560;2023-11-21T15:07:39;2.90;;;2.53;;
45326;SDS011;31062;49.678;24.560;2023-11-21T15:10:44;2.30;;;2.10;;
45326;SDS011;31062;49.678;24.560;2023-11-21T15:13:50;3.75;;;2.50;;
45326;SDS011;31062;49.678;24.560;2023-11-21T15:16:56;2.33;;;2.13;;
45326;SDS011;31062;49.678;24.560;2023-11-21T15:19:45;3.40;;;3.10;;
45326;SDS011;31062;49.678;24.560;2023-11-21T15:22:30;3.40;;;3.05;;
45326;SDS011;31062;49.678;24.560;2023-11-21T15:25:16;4.22;;;2.47;;
45326;SDS011;31062;49.678;24.560;2023-11-21T15:28:02;4.80;;;3.88;;
45326;SDS011;31062;49.678;24.560;2023-11-21T15:31:08;5.32;;;3.75;;
45326;SDS011;31062;49.678;24.560;2023-11-21T15:34:15;4.07;;;2.90;;
45326;SDS011;31062;49.678;24.560;2023-11-21T15:37:21;2.90;;;2.70;;
45326;SDS011;31062;49.678;24.560;2023-11-21T15:40:27;3.13;;;2.92;;
45326;SDS011;31062;49.678;24.560;2023-11-21T15:43:32;2.92;;;2.63;;
45326;SDS011;31062;49.678;24.560;2023-11-21T15:46:38;2.97;;;2.60;;
45326;SDS011;31062;49.678;24.560;2023-11-21T15:49:26;1.80;;;1.65;;
45326;SDS011;31062;49.678;24.560;2023-11-21T15:52:35;2.85;;;1.83;;
45326;SDS011;31062;49.678;24.560;2023-11-21T15:55:40;2.20;;;1.88;;
45326;SDS011;31062;49.678;24.560;2023-11-21T15:58:46;1.40;;;1.30;;
45326;SDS011;31062;49.678;24.560;2023-11-21T16:01:40;1.60;;;1.50;;
45326;SDS011;31062;49.678;24.560;2023-11-21T16:04:29;6.13;;;4.43;;
45326;SDS011;31062;49.678;24.560;2023-11-21T16:07:15;5.63;;;3.10;;
45326;SDS011;31062;49.678;24.560;2023-11-21T16:10:02;2.80;;;2.42;;
45326;SDS011;31062;49.678;24.560;2023-11-21T16:12:49;4.18;;;3.17;;
45326;SDS011;31062;49.678;24.560;2023-11-21T16:15:36;1.75;;;1.27;;
45326;SDS011;31062;49.678;24.560;2023-11-21T16:18:41;1.27;;;1.23;;
45326;SDS011;31062;49.678;24.560;2023-11-21T16:21:48;1.55;;;1.33;;
45326;SDS011;31062;49.678;24.560;2023-11-21T16:24:34;1.35;;;1.25;;
45326;SDS011;31062;49.678;24.560;2023-11-21T16:27:40;1.75;;;1.63;;
45326;SDS011;31062;49.678;24.560;2023-11-21T16:30:46;4.85;;;4.35;;
45326;SDS011;31062;49.678;24.560;2023-11-21T16:33:52;8.48;;;5.00;;
45326;SDS011;31062;49.678;24.560;2023-11-21T16:37:05;4.38;;;2.70;;
45326;SDS011;31062;49.678;24.560;2023-11-21T16:39:56;2.08;;;1.75;;
45326;SDS011;31062;49.678;24.560;2023-11-21T16:43:02;25.70;;;7.38;;
45326;SDS011;31062;49.678;24.560;2023-11-21T16:46:08;18.25;;;7.05;;
45326;SDS011;31062;49.678;24.560;2023-11-21T16:49:17;7.28;;;4.40;;
45326;SDS011;31062;49.678;24.560;2023-11-21T16:52:19;2.60;;;2.20;;
45326;SDS011;31062;49.678;24.560;2023-11-21T16:55:07;1.10;;;1.08;;
45326;SDS011;31062;49.678;24.560;2023-11-21T16:58:13;0.90;;;0.90;;
45326;SDS011;31062;49.678;24.560;2023-11-21T17:01:19;0.88;;;0.88;;
45326;SDS011;31062;49.678;24.560;2023-11-21T17:04:05;1.15;;;1.08;;
45326;SDS011;31062;49.678;24.560;2023-11-21T17:07:10;1.30;;;1.20;;
45326;SDS011;31062;49.678;24.560;2023-11-21T17:09:57;1.00;;;0.90;;
45326;SDS011;31062;49.678;24.560;2023-11-21T17:13:03;1.10;;;1.00;;
45326;SDS011;31062;49.678;24.560;2023-11-21T17:16:09;1.10;;;1.10;;
45326;SDS011;31062;49.678;24.560;2023-11-21T17:19:55;1.52;;;1.42;;
45326;SDS011;31062;49.678;24.560;2023-11-21T17:23:40;1.38;;;1.00;;
45326;SDS011;31062;49.678;24.560;2023-11-21T17:27:26;0.98;;;0.90;;
45326;SDS011;31062;49.678;24.560;2023-11-21T17:31:12;1.17;;;1.08;;
45326;SDS011;31062;49.678;24.560;2023-11-21T17:35:00;1.40;;;1.27;;
45326;SDS011;31062;49.678;24.560;2023-11-21T17:38:46;1.20;;;1.08;;